sensor_id;sensor_type;location;lat;lon;timestamp;P1;durP1;ratioP1;P2;durP2;ratioP2
2944;SDS011;1482;51.398;7.128;2023-04-22T00:00:13;5.30;;;4.80;;
2944;SDS011;1482;51.398;7.128;2023-04-22T00:02:39;5.97;;;5.10;;
2944;SDS011;1482;51.398;7.128;2023-04-22T00:05:05;6.40;;;4.70;;
2944;SDS011;1482;51.398;7.128;2023-04-22T00:07:32;5.83;;;5.30;;
2944;SDS011;1482;51.398;7.128;2023-04-22T00:09:57;7.40;;;6.70;;
2944;SDS011;1482;51.398;7.128;2023-04-22T00:12:23;5.30;;;4.80;;
2944;SDS011;1482;51.398;7.128;2023-04-22T00:14:48;6.20;;;5.60;;
2944;SDS011;1482;51.398;7.128;2023-04-22T00:17:14;6.83;;;5.73;;
2944;SDS011;1482;51.398;7.128;2023-04-22T00:19:40;6.67;;;5.97;;
2944;SDS011;1482;51.398;7.128;2023-04-22T00:22:05;8.50;;;6.37;;
2944;SDS011;1482;51.398;7.128;2023-04-22T00:24:31;6.03;;;5.33;;
2944;SDS011;1482;51.398;7.128;2023-04-22T00:26:57;6.50;;;5.07;;
2944;SDS011;1482;51.398;7.128;2023-04-22T00:29:23;7.10;;;5.60;;
2944;SDS011;1482;51.398;7.128;2023-04-22T00:31:49;11.60;;;5.77;;
2944;SDS011;1482;51.398;7.128;2023-04-22T00:34:15;5.70;;;4.80;;
2944;SDS011;1482;51.398;7.128;2023-04-22T00:36:44;5.43;;;4.93;;
2944;SDS011;1482;51.398;7.128;2023-04-22T00:39:10;6.43;;;5.10;;
2944;SDS011;1482;51.398;7.128;2023-04-22T00:41:36;5.77;;;5.20;;
2944;SDS011;1482;51.398;7.128;2023-04-22T00:44:03;5.17;;;4.70;;
2944;SDS011;1482;51.398;7.128;2023-04-22T00:46:29;5.23;;;4.73;;
2944;SDS011;1482;51.398;7.128;2023-04-22T00:48:55;5.37;;;4.87;;
2944;SDS011;1482;51.398;7.128;2023-04-22T00:51:21;9.93;;;5.40;;
2944;SDS011;1482;51.398;7.128;2023-04-22T00:53:47;7.20;;;5.97;;
2944;SDS011;1482;51.398;7.128;2023-04-22T00:56:12;6.60;;;5.83;;
2944;SDS011;1482;51.398;7.128;2023-04-22T00:58:38;8.03;;;5.50;;
2944;SDS011;1482;51.398;7.128;2023-04-22T01:01:04;8.63;;;6.70;;
2944;SDS011;1482;51.398;7.128;2023-04-22T01:03:30;7.70;;;7.00;;
2944;SDS011;1482;51.398;7.128;2023-04-22T01:05:57;9.27;;;7.30;;
2944;SDS011;1482;51.398;7.128;2023-04-22T01:08:23;9.10;;;7.20;;
2944;SDS011;1482;51.398;7.128;2023-04-22T01:10:53;7.20;;;6.50;;
2944;SDS011;1482;51.398;7.128;2023-04-22T01:13:20;6.87;;;6.27;;
2944;SDS011;1482;51.398;7.128;2023-04-22T01:15:45;6.50;;;5.87;;
2944;SDS011;1482;51.398;7.128;2023-04-22T01:18:11;7.57;;;5.40;;
2944;SDS011;1482;51.398;7.128;2023-04-22T01:20:37;6.97;;;5.60;;
2944;SDS011;1482;51.398;7.128;2023-04-22T01:23:03;6.63;;;5.67;;
2944;SDS011;1482;51.398;7.128;2023-04-22T01:25:34;6.13;;;5.53;;
2944;SDS011;1482;51.398;7.128;2023-04-22T01:27:59;6.13;;;5.63;;
2944;SDS011;1482;51.398;7.128;2023-04-22T01:30:26;6.60;;;5.97;;
2944;SDS011;1482;51.398;7.128;2023-04-22T01:32:52;10.43;;;6.37;;
2944;SDS011;1482;51.398;7.128;2023-04-22T01:35:18;8.27;;;5.10;;
2944;SDS011;1482;51.398;7.128;2023-04-22T01:37:43;5.37;;;4.97;;
2944;SDS011;1482;51.398;7.128;2023-04-22T01:40:09;4.80;;;4.33;;
2944;SDS011;1482;51.398;7.128;2023-04-22T01:42:36;4.97;;;4.47;;
2944;SDS011;1482;51.398;7.128;2023-04-22T01:45:02;7.10;;;5.53;;
2944;SDS011;1482;51.398;7.128;2023-04-22T01:47:28;5.23;;;4.70;;
2944;SDS011;1482;51.398;7.128;2023-04-22T01:49:53;5.03;;;4.50;;
2944;SDS011;1482;51.398;7.128;2023-04-22T01:52:19;5.80;;;5.30;;
2944;SDS011;1482;51.398;7.128;2023-04-22T01:54:44;4.70;;;4.30;;
2944;SDS011;1482;51.398;7.128;2023-04-22T01:57:11;5.37;;;4.87;;
2944;SDS011;1482;51.398;7.128;2023-04-22T01:59:40;7.53;;;5.80;;
2944;SDS011;1482;51.398;7.128;2023-04-22T02:02:06;12.50;;;4.83;;
2944;SDS011;1482;51.398;7.128;2023-04-22T02:04:31;6.20;;;5.60;;
2944;SDS011;1482;51.398;7.128;2023-04-22T02:06:57;4.60;;;4.20;;
2944;SDS011;1482;51.398;7.128;2023-04-22T02:09:22;5.07;;;4.67;;
2944;SDS011;1482;51.398;7.128;2023-04-22T02:11:48;5.43;;;4.93;;
2944;SDS011;1482;51.398;7.128;2023-04-22T02:14:13;4.40;;;4.10;;
2944;SDS011;1482;51.398;7.128;2023-04-22T02:16:39;5.70;;;5.10;;
2944;SDS011;1482;51.398;7.128;2023-04-22T02:19:05;3.87;;;3.53;;
2944;SDS011;1482;51.398;7.128;2023-04-22T02:21:31;4.83;;;4.27;;
2944;SDS011;1482;51.398;7.128;2023-04-22T02:23:57;13.50;;;5.20;;
2944;SDS011;1482;51.398;7.128;2023-04-22T02:26:22;5.80;;;3.87;;
2944;SDS011;1482;51.398;7.128;2023-04-22T02:28:50;4.17;;;3.87;;
2944;SDS011;1482;51.398;7.128;2023-04-22T02:31:16;4.73;;;4.33;;
2944;SDS011;1482;51.398;7.128;2023-04-22T02:33:41;4.93;;;4.50;;
2944;SDS011;1482;51.398;7.128;2023-04-22T02:36:07;6.23;;;4.57;;
2944;SDS011;1482;51.398;7.128;2023-04-22T02:38:32;4.87;;;4.47;;
2944;SDS011;1482;51.398;7.128;2023-04-22T02:40:58;5.47;;;4.93;;
2944;SDS011;1482;51.398;7.128;2023-04-22T02:43:23;5.43;;;4.23;;
2944;SDS011;1482;51.398;7.128;2023-04-22T02:45:49;4.50;;;4.10;;
2944;SDS011;1482;51.398;7.128;2023-04-22T02:48:14;5.90;;;5.20;;
2944;SDS011;1482;51.398;7.128;2023-04-22T02:50:40;6.43;;;5.00;;
2944;SDS011;1482;51.398;7.128;2023-04-22T02:53:06;4.20;;;3.80;;
2944;SDS011;1482;51.398;7.128;2023-04-22T02:55:32;5.50;;;4.13;;
2944;SDS011;1482;51.398;7.128;2023-04-22T02:57:58;4.07;;;3.77;;
2944;SDS011;1482;51.398;7.128;2023-04-22T03:00:23;5.00;;;4.50;;
2944;SDS011;1482;51.398;7.128;2023-04-22T03:02:49;4.40;;;4.03;;
2944;SDS011;1482;51.398;7.128;2023-04-22T03:05:15;4.57;;;4.17;;
2944;SDS011;1482;51.398;7.128;2023-04-22T03:07:40;4.90;;;4.37;;
2944;SDS011;1482;51.398;7.128;2023-04-22T03:10:06;4.93;;;4.40;;
2944;SDS011;1482;51.398;7.128;2023-04-22T03:12:32;4.40;;;4.00;;
2944;SDS011;1482;51.398;7.128;2023-04-22T03:14:57;4.23;;;3.83;;
2944;SDS011;1482;51.398;7.128;2023-04-22T03:17:23;4.93;;;4.43;;
2944;SDS011;1482;51.398;7.128;2023-04-22T03:19:50;4.53;;;3.80;;
2944;SDS011;1482;51.398;7.128;2023-04-22T03:22:15;4.33;;;3.93;;
2944;SDS011;1482;51.398;7.128;2023-04-22T03:24:41;5.30;;;4.47;;
2944;SDS011;1482;51.398;7.128;2023-04-22T03:27:06;7.80;;;3.90;;
2944;SDS011;1482;51.398;7.128;2023-04-22T03:29:33;68.03;;;5.30;;
2944;SDS011;1482;51.398;7.128;2023-04-22T03:31:59;4.30;;;3.60;;
2944;SDS011;1482;51.398;7.128;2023-04-22T03:34:24;3.70;;;3.40;;
2944;SDS011;1482;51.398;7.128;2023-04-22T03:36:50;4.27;;;3.97;;
2944;SDS011;1482;51.398;7.128;2023-04-22T03:39:16;5.83;;;4.30;;
2944;SDS011;1482;51.398;7.128;2023-04-22T03:41:41;3.90;;;3.60;;
2944;SDS011;1482;51.398;7.128;2023-04-22T03:44:07;4.20;;;3.00;;
2944;SDS011;1482;51.398;7.128;2023-04-22T03:46:33;3.90;;;3.50;;
2944;SDS011;1482;51.398;7.128;2023-04-22T03:48:58;4.27;;;3.87;;
2944;SDS011;1482;51.398;7.128;2023-04-22T03:51:24;3.97;;;3.30;;
2944;SDS011;1482;51.398;7.128;2023-04-22T03:53:49;7.33;;;4.10;;
2944;SDS011;1482;51.398;7.128;2023-04-22T03:56:15;4.20;;;3.80;;
2944;SDS011;1482;51.398;7.128;2023-04-22T03:58:40;7.20;;;3.87;;
2944;SDS011;1482;51.398;7.128;2023-04-22T04:01:06;4.10;;;3.80;;
2944;SDS011;1482;51.398;7.128;2023-04-22T04:03:31;5.33;;;4.83;;
2944;SDS011;1482;51.398;7.128;2023-04-22T04:05:57;3.70;;;3.40;;
2944;SDS011;1482;51.398;7.128;2023-04-22T04:08:22;3.63;;;3.33;;
2944;SDS011;1482;51.398;7.128;2023-04-22T04:10:48;9.17;;;4.27;;
2944;SDS011;1482;51.398;7.128;2023-04-22T04:13:13;4.77;;;3.30;;
2944;SDS011;1482;51.398;7.128;2023-04-22T04:15:39;5.23;;;3.67;;
2944;SDS011;1482;51.398;7.128;2023-04-22T04:18:05;4.10;;;3.80;;
2944;SDS011;1482;51.398;7.128;2023-04-22T04:20:30;5.03;;;3.80;;
2944;SDS011;1482;51.398;7.128;2023-04-22T04:22:56;3.77;;;3.53;;
2944;SDS011;1482;51.398;7.128;2023-04-22T04:25:21;4.77;;;3.67;;
2944;SDS011;1482;51.398;7.128;2023-04-22T04:27:47;3.67;;;3.37;;
2944;SDS011;1482;51.398;7.128;2023-04-22T04:30:14;3.57;;;3.27;;
2944;SDS011;1482;51.398;7.128;2023-04-22T04:32:40;2.90;;;2.60;;
2944;SDS011;1482;51.398;7.128;2023-04-22T04:35:06;4.50;;;2.80;;
2944;SDS011;1482;51.398;7.128;2023-04-22T04:37:33;3.23;;;3.03;;
2944;SDS011;1482;51.398;7.128;2023-04-22T04:39:58;7.47;;;2.80;;
2944;SDS011;1482;51.398;7.128;2023-04-22T04:42:24;3.50;;;2.90;;
2944;SDS011;1482;51.398;7.128;2023-04-22T04:44:50;4.43;;;3.00;;
2944;SDS011;1482;51.398;7.128;2023-04-22T04:47:17;3.30;;;3.00;;
2944;SDS011;1482;51.398;7.128;2023-04-22T04:49:44;3.70;;;2.80;;
2944;SDS011;1482;51.398;7.128;2023-04-22T04:52:10;3.30;;;3.00;;
2944;SDS011;1482;51.398;7.128;2023-04-22T04:54:36;3.40;;;3.20;;
2944;SDS011;1482;51.398;7.128;2023-04-22T04:57:01;3.70;;;3.40;;
2944;SDS011;1482;51.398;7.128;2023-04-22T04:59:27;3.60;;;3.10;;
2944;SDS011;1482;51.398;7.128;2023-04-22T05:01:53;3.03;;;2.73;;
2944;SDS011;1482;51.398;7.128;2023-04-22T05:04:18;2.80;;;2.60;;
2944;SDS011;1482;51.398;7.128;2023-04-22T05:06:45;3.50;;;3.20;;
2944;SDS011;1482;51.398;7.128;2023-04-22T05:09:12;4.73;;;3.13;;
2944;SDS011;1482;51.398;7.128;2023-04-22T05:11:38;3.70;;;2.93;;
2944;SDS011;1482;51.398;7.128;2023-04-22T05:14:04;2.47;;;2.27;;
2944;SDS011;1482;51.398;7.128;2023-04-22T05:16:30;4.43;;;3.00;;
2944;SDS011;1482;51.398;7.128;2023-04-22T05:18:55;3.67;;;3.23;;
2944;SDS011;1482;51.398;7.128;2023-04-22T05:21:21;3.47;;;2.70;;
2944;SDS011;1482;51.398;7.128;2023-04-22T05:23:46;2.90;;;2.60;;
2944;SDS011;1482;51.398;7.128;2023-04-22T05:26:12;3.50;;;3.20;;
2944;SDS011;1482;51.398;7.128;2023-04-22T05:28:38;3.67;;;2.53;;
2944;SDS011;1482;51.398;7.128;2023-04-22T05:31:03;3.03;;;2.83;;
2944;SDS011;1482;51.398;7.128;2023-04-22T05:33:29;3.97;;;3.63;;
2944;SDS011;1482;51.398;7.128;2023-04-22T05:35:55;3.20;;;2.90;;
2944;SDS011;1482;51.398;7.128;2023-04-22T05:38:20;2.53;;;2.33;;
2944;SDS011;1482;51.398;7.128;2023-04-22T05:40:46;2.33;;;2.23;;
2944;SDS011;1482;51.398;7.128;2023-04-22T05:43:11;2.80;;;2.60;;
2944;SDS011;1482;51.398;7.128;2023-04-22T05:45:37;3.33;;;2.93;;
2944;SDS011;1482;51.398;7.128;2023-04-22T05:48:02;3.20;;;2.63;;
2944;SDS011;1482;51.398;7.128;2023-04-22T05:50:28;5.13;;;2.70;;
2944;SDS011;1482;51.398;7.128;2023-04-22T05:52:53;5.00;;;2.93;;
2944;SDS011;1482;51.398;7.128;2023-04-22T05:55:19;3.70;;;2.90;;
2944;SDS011;1482;51.398;7.128;2023-04-22T05:57:45;2.90;;;2.67;;
2944;SDS011;1482;51.398;7.128;2023-04-22T06:00:10;2.30;;;2.10;;
2944;SDS011;1482;51.398;7.128;2023-04-22T06:02:36;3.07;;;2.77;;
2944;SDS011;1482;51.398;7.128;2023-04-22T06:05:02;2.90;;;2.50;;
2944;SDS011;1482;51.398;7.128;2023-04-22T06:07:27;3.17;;;2.80;;
2944;SDS011;1482;51.398;7.128;2023-04-22T06:09:53;2.90;;;2.70;;
2944;SDS011;1482;51.398;7.128;2023-04-22T06:12:18;3.57;;;3.27;;
2944;SDS011;1482;51.398;7.128;2023-04-22T06:14:44;4.00;;;2.70;;
2944;SDS011;1482;51.398;7.128;2023-04-22T06:17:10;3.10;;;2.80;;
2944;SDS011;1482;51.398;7.128;2023-04-22T06:19:36;3.27;;;2.97;;
2944;SDS011;1482;51.398;7.128;2023-04-22T06:22:01;3.33;;;3.07;;
2944;SDS011;1482;51.398;7.128;2023-04-22T06:24:27;2.63;;;2.43;;
2944;SDS011;1482;51.398;7.128;2023-04-22T06:26:52;3.03;;;2.73;;
2944;SDS011;1482;51.398;7.128;2023-04-22T06:29:18;2.17;;;2.00;;
2944;SDS011;1482;51.398;7.128;2023-04-22T06:31:44;2.57;;;2.37;;
2944;SDS011;1482;51.398;7.128;2023-04-22T06:34:09;2.97;;;2.67;;
2944;SDS011;1482;51.398;7.128;2023-04-22T06:36:35;3.17;;;2.67;;
2944;SDS011;1482;51.398;7.128;2023-04-22T06:39:03;2.43;;;2.23;;
2944;SDS011;1482;51.398;7.128;2023-04-22T06:41:30;4.97;;;3.03;;
2944;SDS011;1482;51.398;7.128;2023-04-22T06:43:56;8.23;;;2.77;;
2944;SDS011;1482;51.398;7.128;2023-04-22T06:46:22;2.90;;;2.70;;
2944;SDS011;1482;51.398;7.128;2023-04-22T06:48:48;3.03;;;2.80;;
2944;SDS011;1482;51.398;7.128;2023-04-22T06:51:13;3.80;;;3.50;;
2944;SDS011;1482;51.398;7.128;2023-04-22T06:53:39;2.10;;;2.00;;
2944;SDS011;1482;51.398;7.128;2023-04-22T06:56:04;4.07;;;2.77;;
2944;SDS011;1482;51.398;7.128;2023-04-22T06:58:30;2.40;;;2.10;;
2944;SDS011;1482;51.398;7.128;2023-04-22T07:00:56;3.27;;;3.07;;
2944;SDS011;1482;51.398;7.128;2023-04-22T07:03:21;2.67;;;2.47;;
2944;SDS011;1482;51.398;7.128;2023-04-22T07:05:47;3.20;;;3.00;;
2944;SDS011;1482;51.398;7.128;2023-04-22T07:08:13;3.23;;;2.23;;
2944;SDS011;1482;51.398;7.128;2023-04-22T07:10:38;2.60;;;2.40;;
2944;SDS011;1482;51.398;7.128;2023-04-22T07:13:04;2.20;;;2.00;;
2944;SDS011;1482;51.398;7.128;2023-04-22T07:15:30;4.70;;;2.20;;
2944;SDS011;1482;51.398;7.128;2023-04-22T07:17:55;2.10;;;2.00;;
2944;SDS011;1482;51.398;7.128;2023-04-22T07:20:21;2.47;;;2.27;;
2944;SDS011;1482;51.398;7.128;2023-04-22T07:22:46;4.97;;;4.47;;
2944;SDS011;1482;51.398;7.128;2023-04-22T07:25:12;6.60;;;5.70;;
2944;SDS011;1482;51.398;7.128;2023-04-22T07:27:37;9.13;;;8.20;;
2944;SDS011;1482;51.398;7.128;2023-04-22T07:30:04;3.33;;;3.03;;
2944;SDS011;1482;51.398;7.128;2023-04-22T07:32:31;4.70;;;4.23;;
2944;SDS011;1482;51.398;7.128;2023-04-22T07:34:57;2.70;;;2.50;;
2944;SDS011;1482;51.398;7.128;2023-04-22T07:37:22;2.77;;;2.17;;
2944;SDS011;1482;51.398;7.128;2023-04-22T07:39:48;2.00;;;1.90;;
2944;SDS011;1482;51.398;7.128;2023-04-22T07:42:14;4.30;;;3.97;;
2944;SDS011;1482;51.398;7.128;2023-04-22T07:44:39;4.07;;;3.77;;
2944;SDS011;1482;51.398;7.128;2023-04-22T07:47:05;2.50;;;2.30;;
2944;SDS011;1482;51.398;7.128;2023-04-22T07:49:32;5.40;;;4.40;;
2944;SDS011;1482;51.398;7.128;2023-04-22T07:51:58;3.40;;;2.77;;
2944;SDS011;1482;51.398;7.128;2023-04-22T07:54:23;3.47;;;3.27;;
2944;SDS011;1482;51.398;7.128;2023-04-22T07:56:49;2.70;;;2.50;;
2944;SDS011;1482;51.398;7.128;2023-04-22T07:59:15;2.50;;;2.30;;
2944;SDS011;1482;51.398;7.128;2023-04-22T08:01:40;3.30;;;3.10;;
2944;SDS011;1482;51.398;7.128;2023-04-22T08:04:06;3.50;;;3.30;;
2944;SDS011;1482;51.398;7.128;2023-04-22T08:06:32;2.90;;;2.70;;
2944;SDS011;1482;51.398;7.128;2023-04-22T08:08:57;3.60;;;3.40;;
2944;SDS011;1482;51.398;7.128;2023-04-22T08:11:23;3.20;;;2.93;;
2944;SDS011;1482;51.398;7.128;2023-04-22T08:13:49;4.53;;;3.60;;
2944;SDS011;1482;51.398;7.128;2023-04-22T08:16:14;3.47;;;3.17;;
2944;SDS011;1482;51.398;7.128;2023-04-22T08:18:40;5.70;;;3.27;;
2944;SDS011;1482;51.398;7.128;2023-04-22T08:21:05;3.77;;;3.20;;
2944;SDS011;1482;51.398;7.128;2023-04-22T08:23:31;3.27;;;3.07;;
2944;SDS011;1482;51.398;7.128;2023-04-22T08:25:57;4.20;;;3.47;;
2944;SDS011;1482;51.398;7.128;2023-04-22T08:28:25;10.70;;;3.80;;
2944;SDS011;1482;51.398;7.128;2023-04-22T08:30:51;3.00;;;2.40;;
2944;SDS011;1482;51.398;7.128;2023-04-22T08:33:17;3.27;;;2.90;;
2944;SDS011;1482;51.398;7.128;2023-04-22T08:35:42;3.30;;;2.80;;
2944;SDS011;1482;51.398;7.128;2023-04-22T08:38:08;3.50;;;3.30;;
2944;SDS011;1482;51.398;7.128;2023-04-22T08:40:34;4.03;;;3.30;;
2944;SDS011;1482;51.398;7.128;2023-04-22T08:42:59;3.60;;;3.30;;
2944;SDS011;1482;51.398;7.128;2023-04-22T08:45:25;4.07;;;3.77;;
2944;SDS011;1482;51.398;7.128;2023-04-22T08:47:51;5.00;;;3.00;;
2944;SDS011;1482;51.398;7.128;2023-04-22T08:50:19;3.50;;;3.20;;
2944;SDS011;1482;51.398;7.128;2023-04-22T08:52:46;3.47;;;3.27;;
2944;SDS011;1482;51.398;7.128;2023-04-22T08:55:12;3.83;;;3.50;;
2944;SDS011;1482;51.398;7.128;2023-04-22T08:57:37;3.63;;;3.40;;
2944;SDS011;1482;51.398;7.128;2023-04-22T09:00:04;16.53;;;3.20;;
2944;SDS011;1482;51.398;7.128;2023-04-22T09:02:32;9.20;;;3.10;;
2944;SDS011;1482;51.398;7.128;2023-04-22T09:05:00;3.80;;;3.50;;
2944;SDS011;1482;51.398;7.128;2023-04-22T09:07:27;4.50;;;3.07;;
2944;SDS011;1482;51.398;7.128;2023-04-22T09:09:55;4.20;;;3.90;;
2944;SDS011;1482;51.398;7.128;2023-04-22T09:12:21;8.63;;;3.90;;
2944;SDS011;1482;51.398;7.128;2023-04-22T09:14:47;4.20;;;3.80;;
2944;SDS011;1482;51.398;7.128;2023-04-22T09:17:16;3.03;;;2.80;;
2944;SDS011;1482;51.398;7.128;2023-04-22T09:19:43;3.60;;;3.30;;
2944;SDS011;1482;51.398;7.128;2023-04-22T09:22:12;3.40;;;3.20;;
2944;SDS011;1482;51.398;7.128;2023-04-22T09:24:48;4.13;;;3.83;;
2944;SDS011;1482;51.398;7.128;2023-04-22T09:27:15;5.37;;;3.60;;
2944;SDS011;1482;51.398;7.128;2023-04-22T09:29:46;3.57;;;3.27;;
2944;SDS011;1482;51.398;7.128;2023-04-22T09:32:13;8.70;;;3.43;;
2944;SDS011;1482;51.398;7.128;2023-04-22T09:34:49;4.27;;;3.83;;
2944;SDS011;1482;51.398;7.128;2023-04-22T09:37:25;4.07;;;3.77;;
2944;SDS011;1482;51.398;7.128;2023-04-22T09:39:51;3.67;;;3.37;;
2944;SDS011;1482;51.398;7.128;2023-04-22T09:42:17;3.37;;;3.03;;
2944;SDS011;1482;51.398;7.128;2023-04-22T09:44:44;3.97;;;3.57;;
2944;SDS011;1482;51.398;7.128;2023-04-22T09:47:16;4.53;;;3.17;;
2944;SDS011;1482;51.398;7.128;2023-04-22T09:49:47;3.77;;;3.47;;
2944;SDS011;1482;51.398;7.128;2023-04-22T09:52:20;3.47;;;3.17;;
2944;SDS011;1482;51.398;7.128;2023-04-22T09:54:52;3.70;;;3.40;;
2944;SDS011;1482;51.398;7.128;2023-04-22T09:57:20;4.10;;;3.47;;
2944;SDS011;1482;51.398;7.128;2023-04-22T09:59:46;3.00;;;2.80;;
2944;SDS011;1482;51.398;7.128;2023-04-22T10:02:15;6.67;;;3.43;;
2944;SDS011;1482;51.398;7.128;2023-04-22T10:04:40;3.60;;;3.30;;
2944;SDS011;1482;51.398;7.128;2023-04-22T10:07:06;3.80;;;3.50;;
2944;SDS011;1482;51.398;7.128;2023-04-22T10:09:32;3.07;;;2.83;;
2944;SDS011;1482;51.398;7.128;2023-04-22T10:11:59;3.73;;;3.53;;
2944;SDS011;1482;51.398;7.128;2023-04-22T10:14:25;4.10;;;3.00;;
2944;SDS011;1482;51.398;7.128;2023-04-22T10:16:52;3.60;;;3.30;;
2944;SDS011;1482;51.398;7.128;2023-04-22T10:19:22;7.17;;;3.80;;
2944;SDS011;1482;51.398;7.128;2023-04-22T10:21:51;3.97;;;3.70;;
2944;SDS011;1482;51.398;7.128;2023-04-22T10:24:20;3.43;;;3.20;;
2944;SDS011;1482;51.398;7.128;2023-04-22T10:26:55;3.83;;;3.50;;
2944;SDS011;1482;51.398;7.128;2023-04-22T10:29:22;4.67;;;3.20;;
2944;SDS011;1482;51.398;7.128;2023-04-22T10:35:07;2.73;;;2.53;;
2944;SDS011;1482;51.398;7.128;2023-04-22T10:37:34;6.03;;;2.60;;
2944;SDS011;1482;51.398;7.128;2023-04-22T10:40:10;7.40;;;4.00;;
2944;SDS011;1482;51.398;7.128;2023-04-22T10:42:41;3.93;;;3.63;;
2944;SDS011;1482;51.398;7.128;2023-04-22T10:45:11;4.83;;;3.17;;
2944;SDS011;1482;51.398;7.128;2023-04-22T10:47:40;3.60;;;3.30;;
2944;SDS011;1482;51.398;7.128;2023-04-22T10:52:42;3.60;;;3.27;;
2944;SDS011;1482;51.398;7.128;2023-04-22T10:55:10;5.37;;;3.80;;
2944;SDS011;1482;51.398;7.128;2023-04-22T10:57:37;7.10;;;4.17;;
2944;SDS011;1482;51.398;7.128;2023-04-22T11:05:29;4.20;;;3.90;;
2944;SDS011;1482;51.398;7.128;2023-04-22T11:08:00;6.00;;;3.33;;
2944;SDS011;1482;51.398;7.128;2023-04-22T11:10:41;5.63;;;3.43;;
2944;SDS011;1482;51.398;7.128;2023-04-22T11:13:09;4.00;;;3.70;;
2944;SDS011;1482;51.398;7.128;2023-04-22T11:15:38;4.17;;;3.00;;
2944;SDS011;1482;51.398;7.128;2023-04-22T11:18:13;3.60;;;3.30;;
2944;SDS011;1482;51.398;7.128;2023-04-22T11:20:46;4.40;;;4.00;;
2944;SDS011;1482;51.398;7.128;2023-04-22T11:23:16;5.60;;;3.90;;
2944;SDS011;1482;51.398;7.128;2023-04-22T11:25:46;3.63;;;3.33;;
2944;SDS011;1482;51.398;7.128;2023-04-22T11:28:11;4.83;;;4.33;;
2944;SDS011;1482;51.398;7.128;2023-04-22T11:30:37;4.73;;;4.30;;
2944;SDS011;1482;51.398;7.128;2023-04-22T11:33:03;4.20;;;3.90;;
2944;SDS011;1482;51.398;7.128;2023-04-22T11:35:29;5.93;;;3.53;;
2944;SDS011;1482;51.398;7.128;2023-04-22T11:38:05;4.73;;;3.50;;
2944;SDS011;1482;51.398;7.128;2023-04-22T11:40:36;4.57;;;4.13;;
2944;SDS011;1482;51.398;7.128;2023-04-22T11:43:03;4.63;;;3.87;;
2944;SDS011;1482;51.398;7.128;2023-04-22T11:45:32;3.53;;;3.33;;
2944;SDS011;1482;51.398;7.128;2023-04-22T11:47:58;4.73;;;4.13;;
2944;SDS011;1482;51.398;7.128;2023-04-22T11:50:26;4.00;;;3.80;;
2944;SDS011;1482;51.398;7.128;2023-04-22T11:52:58;4.10;;;3.73;;
2944;SDS011;1482;51.398;7.128;2023-04-22T11:55:29;4.07;;;3.80;;
2944;SDS011;1482;51.398;7.128;2023-04-22T11:58:00;4.23;;;3.80;;
2944;SDS011;1482;51.398;7.128;2023-04-22T12:00:38;4.70;;;4.40;;
2944;SDS011;1482;51.398;7.128;2023-04-22T12:03:06;5.23;;;3.80;;
2944;SDS011;1482;51.398;7.128;2023-04-22T12:08:07;4.07;;;3.77;;
2944;SDS011;1482;51.398;7.128;2023-04-22T12:13:06;5.30;;;3.43;;
2944;SDS011;1482;51.398;7.128;2023-04-22T12:15:41;4.17;;;3.80;;
2944;SDS011;1482;51.398;7.128;2023-04-22T12:18:08;4.00;;;3.60;;
2944;SDS011;1482;51.398;7.128;2023-04-22T12:20:40;4.80;;;3.87;;
2944;SDS011;1482;51.398;7.128;2023-04-22T12:23:15;5.57;;;4.20;;
2944;SDS011;1482;51.398;7.128;2023-04-22T12:25:41;4.00;;;3.70;;
2944;SDS011;1482;51.398;7.128;2023-04-22T12:28:07;9.70;;;4.40;;
2944;SDS011;1482;51.398;7.128;2023-04-22T12:30:34;4.20;;;3.50;;
2944;SDS011;1482;51.398;7.128;2023-04-22T12:32:59;6.03;;;3.97;;
2944;SDS011;1482;51.398;7.128;2023-04-22T12:35:25;3.57;;;3.27;;
2944;SDS011;1482;51.398;7.128;2023-04-22T12:37:51;4.23;;;3.50;;
2944;SDS011;1482;51.398;7.128;2023-04-22T12:40:16;3.77;;;3.57;;
2944;SDS011;1482;51.398;7.128;2023-04-22T12:42:42;4.33;;;3.93;;
2944;SDS011;1482;51.398;7.128;2023-04-22T12:45:08;5.27;;;3.83;;
2944;SDS011;1482;51.398;7.128;2023-04-22T12:47:34;5.07;;;4.67;;
2944;SDS011;1482;51.398;7.128;2023-04-22T12:50:00;3.90;;;3.60;;
2944;SDS011;1482;51.398;7.128;2023-04-22T12:52:30;5.53;;;4.07;;
2944;SDS011;1482;51.398;7.128;2023-04-22T12:54:56;3.77;;;3.43;;
2944;SDS011;1482;51.398;7.128;2023-04-22T12:57:21;7.90;;;3.67;;
2944;SDS011;1482;51.398;7.128;2023-04-22T12:59:47;5.80;;;4.40;;
2944;SDS011;1482;51.398;7.128;2023-04-22T13:02:13;4.53;;;4.13;;
2944;SDS011;1482;51.398;7.128;2023-04-22T13:04:38;5.17;;;4.00;;
2944;SDS011;1482;51.398;7.128;2023-04-22T13:07:07;5.23;;;4.83;;
2944;SDS011;1482;51.398;7.128;2023-04-22T13:09:33;5.47;;;4.53;;
2944;SDS011;1482;51.398;7.128;2023-04-22T13:11:58;4.80;;;4.40;;
2944;SDS011;1482;51.398;7.128;2023-04-22T13:14:24;5.43;;;3.83;;
2944;SDS011;1482;51.398;7.128;2023-04-22T13:16:50;5.77;;;4.13;;
2944;SDS011;1482;51.398;7.128;2023-04-22T13:19:16;6.00;;;4.90;;
2944;SDS011;1482;51.398;7.128;2023-04-22T13:21:41;5.43;;;3.60;;
2944;SDS011;1482;51.398;7.128;2023-04-22T13:24:07;3.73;;;3.43;;
2944;SDS011;1482;51.398;7.128;2023-04-22T13:26:33;5.00;;;4.10;;
2944;SDS011;1482;51.398;7.128;2023-04-22T13:29:00;4.33;;;3.53;;
2944;SDS011;1482;51.398;7.128;2023-04-22T13:31:26;5.30;;;3.90;;
2944;SDS011;1482;51.398;7.128;2023-04-22T13:33:51;6.07;;;4.00;;
2944;SDS011;1482;51.398;7.128;2023-04-22T13:36:17;4.43;;;4.00;;
2944;SDS011;1482;51.398;7.128;2023-04-22T13:38:42;4.70;;;4.30;;
2944;SDS011;1482;51.398;7.128;2023-04-22T13:41:08;5.53;;;4.20;;
2944;SDS011;1482;51.398;7.128;2023-04-22T13:43:33;5.17;;;4.77;;
2944;SDS011;1482;51.398;7.128;2023-04-22T13:45:59;4.53;;;3.77;;
2944;SDS011;1482;51.398;7.128;2023-04-22T13:48:24;4.60;;;3.83;;
2944;SDS011;1482;51.398;7.128;2023-04-22T13:50:51;7.30;;;3.93;;
2944;SDS011;1482;51.398;7.128;2023-04-22T13:53:17;4.73;;;4.10;;
2944;SDS011;1482;51.398;7.128;2023-04-22T13:55:42;4.60;;;3.50;;
2944;SDS011;1482;51.398;7.128;2023-04-22T13:58:08;5.43;;;3.70;;
2944;SDS011;1482;51.398;7.128;2023-04-22T14:00:33;4.90;;;4.13;;
2944;SDS011;1482;51.398;7.128;2023-04-22T14:02:59;4.50;;;4.10;;
2944;SDS011;1482;51.398;7.128;2023-04-22T14:05:25;4.07;;;3.77;;
2944;SDS011;1482;51.398;7.128;2023-04-22T14:07:51;5.47;;;3.70;;
2944;SDS011;1482;51.398;7.128;2023-04-22T14:10:17;5.63;;;3.83;;
2944;SDS011;1482;51.398;7.128;2023-04-22T14:12:44;3.63;;;3.17;;
2944;SDS011;1482;51.398;7.128;2023-04-22T14:15:11;4.70;;;3.93;;
2944;SDS011;1482;51.398;7.128;2023-04-22T14:17:37;4.10;;;3.80;;
2944;SDS011;1482;51.398;7.128;2023-04-22T14:20:03;3.30;;;3.10;;
2944;SDS011;1482;51.398;7.128;2023-04-22T14:22:29;4.33;;;3.70;;
2944;SDS011;1482;51.398;7.128;2023-04-22T14:24:55;4.13;;;3.83;;
2944;SDS011;1482;51.398;7.128;2023-04-22T14:27:21;5.07;;;4.57;;
2944;SDS011;1482;51.398;7.128;2023-04-22T14:29:46;4.37;;;3.97;;
2944;SDS011;1482;51.398;7.128;2023-04-22T14:32:16;4.60;;;4.03;;
2944;SDS011;1482;51.398;7.128;2023-04-22T14:34:45;4.40;;;3.97;;
2944;SDS011;1482;51.398;7.128;2023-04-22T14:37:11;5.87;;;4.17;;
2944;SDS011;1482;51.398;7.128;2023-04-22T14:39:37;4.60;;;3.50;;
2944;SDS011;1482;51.398;7.128;2023-04-22T14:42:02;4.60;;;3.90;;
2944;SDS011;1482;51.398;7.128;2023-04-22T14:44:28;4.70;;;3.80;;
2944;SDS011;1482;51.398;7.128;2023-04-22T14:46:56;4.40;;;3.40;;
2944;SDS011;1482;51.398;7.128;2023-04-22T14:49:22;5.07;;;4.67;;
2944;SDS011;1482;51.398;7.128;2023-04-22T14:51:48;5.10;;;4.03;;
2944;SDS011;1482;51.398;7.128;2023-04-22T14:54:13;6.13;;;3.73;;
2944;SDS011;1482;51.398;7.128;2023-04-22T14:56:39;7.00;;;3.50;;
2944;SDS011;1482;51.398;7.128;2023-04-22T14:59:04;5.83;;;3.90;;
2944;SDS011;1482;51.398;7.128;2023-04-22T15:01:30;3.63;;;3.33;;
2944;SDS011;1482;51.398;7.128;2023-04-22T15:03:56;3.83;;;3.43;;
2944;SDS011;1482;51.398;7.128;2023-04-22T15:06:22;3.33;;;3.03;;
2944;SDS011;1482;51.398;7.128;2023-04-22T15:08:48;3.80;;;3.50;;
2944;SDS011;1482;51.398;7.128;2023-04-22T15:11:15;3.20;;;3.00;;
2944;SDS011;1482;51.398;7.128;2023-04-22T15:13:41;3.70;;;3.27;;
2944;SDS011;1482;51.398;7.128;2023-04-22T15:16:06;3.80;;;2.60;;
2944;SDS011;1482;51.398;7.128;2023-04-22T15:18:32;10.60;;;4.27;;
2944;SDS011;1482;51.398;7.128;2023-04-22T15:20:58;4.70;;;3.33;;
2944;SDS011;1482;51.398;7.128;2023-04-22T15:23:23;3.93;;;3.17;;
2944;SDS011;1482;51.398;7.128;2023-04-22T15:25:49;4.23;;;2.97;;